This is the latest recevied weather packets stored in our database for station/object KG7BDA. If no packets are shown the sender has not sent any weather packets the latest 10 day(s).
| Time | Temp. | Humidity | Pressure | Rain* | Wind** | Luminosity | Snow |
|---|---|---|---|---|---|---|---|
| 1778165124 | 15° C | 58% | 1017 hPa | 0 mm | - | - | - |
| 1778164764 | 14.44° C | 58% | 1017.1 hPa | 0 mm | - | - | - |
| 1778164405 | 14.44° C | 59% | 1017 hPa | 0 mm | - | - | - |
| 1778164045 | 13.89° C | 62% | 1017 hPa | 0 mm | - | - | - |
| 1778163685 | 13.89° C | 63% | 1016.9 hPa | 0 mm | - | - | - |
| 1778163324 | 13.89° C | 65% | 1016.9 hPa | 0 mm | - | - | - |
| 1778162964 | 13.33° C | 66% | 1016.8 hPa | 0 mm | - | - | - |
| 1778162604 | 12.78° C | 69% | 1016.8 hPa | 0 mm | - | - | - |
| 1778162245 | 12.78° C | 69% | 1016.8 hPa | 0 mm | - | - | - |
| 1778161884 | 12.22° C | 71% | 1016.7 hPa | 0 mm | - | - | - |
| 1778161524 | 11.67° C | 72% | 1016.6 hPa | 0 mm | - | - | - |
| 1778161164 | 11.11° C | 74% | 1016.5 hPa | 0 mm | - | - | - |
| 1778160444 | 10° C | 80% | 1016.4 hPa | 0 mm | - | - | - |
| 1778160085 | 10° C | 81% | 1016.4 hPa | 0 mm | - | - | - |
| 1778159725 | 9.44° C | 81% | 1016.2 hPa | 0 mm | - | - | - |
| 1778159364 | 9.44° C | 81% | 1016.2 hPa | 0 mm | - | - | - |
| 1778159005 | 9.44° C | 80% | 1016.2 hPa | 0 mm | - | - | - |
| 1778158644 | 10° C | 77% | 1016.1 hPa | 0 mm | - | - | - |
| 1778158284 | 10.56° C | 77% | 1016 hPa | 0 mm | - | - | - |
| 1778157924 | 10.56° C | 75% | 1016 hPa | 0 mm | - | - | - |
| 1778157564 | 11.11° C | 73% | 1016.1 hPa | 0 mm | - | - | - |
| 1778157205 | 11.67° C | 74% | 1016.1 hPa | 0 mm | - | - | - |
| 1778156845 | 11.67° C | 75% | 1016 hPa | 0 mm | - | - | - |
| 1778156485 | 11.11° C | 76% | 1016 hPa | 0 mm | - | - | - |
| 1778156125 | 10.56° C | 77% | 1016 hPa | 0 mm | - | - | - |
* Rain latest hour (hover to see other rain measurements)
** Current wind speed in m/s (hover to see current wind gust speed)